Brent, United Kingdom
Current Conditions -  °F | °C
As of 6:50 AM on Thursday 23 Oct 2014 (Local Time) from EGWU Reporting Station
Overcast Overcast  
Wind Chill: 54°   Ceiling: 3500
Heat Index: 54°   Visibility: 6mi
Dew Point: 45°   Wind: 8mph
Humidity: 72%   Direction: 240°WSW
Pressure: 30.12"   Gusts: NA
Location:  51.55°N, 0.3°W
Report Text: EGWU 230550Z 24007KT 9999 SCT030 OVC035 12/07 Q1020 NOSIG
Loading
Personal Weather Stations






























Interactive Weather Map New forecast layout! Learn more

10-Day Weather Forecast

Advertisements
Track Severe Weather on mobile